sensor_id;sensor_type;location;lat;lon;timestamp;temperature;humidity
4509;DHT22;2267;48.816;9.230;2023-07-02T00:00:08;20.60;99.90
4509;DHT22;2267;48.816;9.230;2023-07-02T00:02:36;20.60;99.90
4509;DHT22;2267;48.816;9.230;2023-07-02T00:05:04;20.60;99.90
4509;DHT22;2267;48.816;9.230;2023-07-02T00:07:31;20.60;99.90
4509;DHT22;2267;48.816;9.230;2023-07-02T00:09:58;20.60;99.90
4509;DHT22;2267;48.816;9.230;2023-07-02T00:12:25;20.60;99.90
4509;DHT22;2267;48.816;9.230;2023-07-02T00:14:52;20.50;99.90
4509;DHT22;2267;48.816;9.230;2023-07-02T00:17:20;20.50;99.90
4509;DHT22;2267;48.816;9.230;2023-07-02T00:19:47;20.60;99.90
4509;DHT22;2267;48.816;9.230;2023-07-02T00:22:18;20.50;99.90
4509;DHT22;2267;48.816;9.230;2023-07-02T00:24:45;20.50;99.90
4509;DHT22;2267;48.816;9.230;2023-07-02T00:27:12;20.50;99.90
4509;DHT22;2267;48.816;9.230;2023-07-02T00:29:39;20.60;99.90
4509;DHT22;2267;48.816;9.230;2023-07-02T00:32:07;20.50;99.90
4509;DHT22;2267;48.816;9.230;2023-07-02T00:34:34;20.50;99.90
4509;DHT22;2267;48.816;9.230;2023-07-02T00:37:01;20.50;99.90
4509;DHT22;2267;48.816;9.230;2023-07-02T00:39:28;20.50;99.90
4509;DHT22;2267;48.816;9.230;2023-07-02T00:42:02;20.40;99.90
4509;DHT22;2267;48.816;9.230;2023-07-02T00:44:30;20.40;99.90
4509;DHT22;2267;48.816;9.230;2023-07-02T00:46:57;20.40;99.90
4509;DHT22;2267;48.816;9.230;2023-07-02T00:49:25;20.40;99.90
4509;DHT22;2267;48.816;9.230;2023-07-02T00:51:52;20.40;99.90
4509;DHT22;2267;48.816;9.230;2023-07-02T00:54:19;20.40;99.90
4509;DHT22;2267;48.816;9.230;2023-07-02T00:56:46;20.40;99.90
4509;DHT22;2267;48.816;9.230;2023-07-02T00:59:13;20.40;99.90
4509;DHT22;2267;48.816;9.230;2023-07-02T01:01:40;20.40;99.90
4509;DHT22;2267;48.816;9.230;2023-07-02T01:04:07;20.40;99.90
4509;DHT22;2267;48.816;9.230;2023-07-02T01:06:36;20.40;99.90
4509;DHT22;2267;48.816;9.230;2023-07-02T01:09:04;20.40;99.90
4509;DHT22;2267;48.816;9.230;2023-07-02T01:11:38;20.40;99.90
4509;DHT22;2267;48.816;9.230;2023-07-02T01:14:10;20.40;99.90
4509;DHT22;2267;48.816;9.230;2023-07-02T01:16:40;20.40;99.90
4509;DHT22;2267;48.816;9.230;2023-07-02T01:19:21;20.40;99.90
4509;DHT22;2267;48.816;9.230;2023-07-02T01:21:49;20.40;99.90
4509;DHT22;2267;48.816;9.230;2023-07-02T01:24:17;20.40;99.90
4509;DHT22;2267;48.816;9.230;2023-07-02T01:26:44;20.40;99.90
4509;DHT22;2267;48.816;9.230;2023-07-02T01:29:15;20.40;99.90
4509;DHT22;2267;48.816;9.230;2023-07-02T01:31:43;20.40;99.90
4509;DHT22;2267;48.816;9.230;2023-07-02T01:34:10;20.40;99.90
4509;DHT22;2267;48.816;9.230;2023-07-02T01:36:38;20.40;99.90
4509;DHT22;2267;48.816;9.230;2023-07-02T01:39:05;20.40;99.90
4509;DHT22;2267;48.816;9.230;2023-07-02T01:41:41;20.40;99.90
4509;DHT22;2267;48.816;9.230;2023-07-02T01:44:08;20.40;99.90
4509;DHT22;2267;48.816;9.230;2023-07-02T01:46:35;20.30;99.90
4509;DHT22;2267;48.816;9.230;2023-07-02T01:49:02;20.30;99.90
4509;DHT22;2267;48.816;9.230;2023-07-02T01:51:29;20.30;99.90
4509;DHT22;2267;48.816;9.230;2023-07-02T01:53:56;20.30;99.90
4509;DHT22;2267;48.816;9.230;2023-07-02T01:56:23;20.30;99.90
4509;DHT22;2267;48.816;9.230;2023-07-02T01:58:49;20.20;99.90
4509;DHT22;2267;48.816;9.230;2023-07-02T02:01:16;20.30;99.90
4509;DHT22;2267;48.816;9.230;2023-07-02T02:03:43;20.20;99.90
4509;DHT22;2267;48.816;9.230;2023-07-02T02:06:10;20.20;99.90
4509;DHT22;2267;48.816;9.230;2023-07-02T02:08:37;20.20;99.90
4509;DHT22;2267;48.816;9.230;2023-07-02T02:11:04;20.20;99.90
4509;DHT22;2267;48.816;9.230;2023-07-02T02:13:31;20.20;99.90
4509;DHT22;2267;48.816;9.230;2023-07-02T02:15:57;20.10;99.90
4509;DHT22;2267;48.816;9.230;2023-07-02T02:18:24;20.20;99.90
4509;DHT22;2267;48.816;9.230;2023-07-02T02:20:51;20.10;99.90
4509;DHT22;2267;48.816;9.230;2023-07-02T02:23:18;20.10;99.90
4509;DHT22;2267;48.816;9.230;2023-07-02T02:25:45;20.10;99.90
4509;DHT22;2267;48.816;9.230;2023-07-02T02:28:11;20.10;99.90
4509;DHT22;2267;48.816;9.230;2023-07-02T02:30:38;20.10;99.90
4509;DHT22;2267;48.816;9.230;2023-07-02T02:33:05;20.10;99.90
4509;DHT22;2267;48.816;9.230;2023-07-02T02:35:32;20.10;99.90
4509;DHT22;2267;48.816;9.230;2023-07-02T02:38:04;20.10;99.90
4509;DHT22;2267;48.816;9.230;2023-07-02T02:40:31;20.10;99.90
4509;DHT22;2267;48.816;9.230;2023-07-02T02:42:58;20.10;99.90
4509;DHT22;2267;48.816;9.230;2023-07-02T02:45:25;20.10;99.90
4509;DHT22;2267;48.816;9.230;2023-07-02T02:47:51;20.10;99.90
4509;DHT22;2267;48.816;9.230;2023-07-02T02:50:19;20.10;99.90
4509;DHT22;2267;48.816;9.230;2023-07-02T02:52:46;20.10;99.90
4509;DHT22;2267;48.816;9.230;2023-07-02T02:55:13;20.10;99.90
4509;DHT22;2267;48.816;9.230;2023-07-02T02:57:40;20.10;99.90
4509;DHT22;2267;48.816;9.230;2023-07-02T03:00:07;20.10;99.90
4509;DHT22;2267;48.816;9.230;2023-07-02T03:02:35;20.10;99.90
4509;DHT22;2267;48.816;9.230;2023-07-02T03:05:03;20.10;99.90
4509;DHT22;2267;48.816;9.230;2023-07-02T03:07:31;20.10;99.90
4509;DHT22;2267;48.816;9.230;2023-07-02T03:09:58;20.10;99.90
4509;DHT22;2267;48.816;9.230;2023-07-02T03:12:28;20.10;99.90
4509;DHT22;2267;48.816;9.230;2023-07-02T03:14:55;20.10;99.90
4509;DHT22;2267;48.816;9.230;2023-07-02T03:17:22;20.10;99.90
4509;DHT22;2267;48.816;9.230;2023-07-02T03:19:49;20.10;99.90
4509;DHT22;2267;48.816;9.230;2023-07-02T03:22:16;20.10;99.90
4509;DHT22;2267;48.816;9.230;2023-07-02T03:24:43;20.00;99.90
4509;DHT22;2267;48.816;9.230;2023-07-02T03:27:10;20.00;99.90
4509;DHT22;2267;48.816;9.230;2023-07-02T03:29:38;19.90;99.90
4509;DHT22;2267;48.816;9.230;2023-07-02T03:32:05;19.90;99.90
4509;DHT22;2267;48.816;9.230;2023-07-02T03:34:32;19.70;99.90
4509;DHT22;2267;48.816;9.230;2023-07-02T03:36:59;19.70;99.90
4509;DHT22;2267;48.816;9.230;2023-07-02T03:39:26;19.60;99.90
4509;DHT22;2267;48.816;9.230;2023-07-02T03:41:53;19.50;99.90
4509;DHT22;2267;48.816;9.230;2023-07-02T03:44:21;19.40;99.90
4509;DHT22;2267;48.816;9.230;2023-07-02T03:46:47;19.40;99.90
4509;DHT22;2267;48.816;9.230;2023-07-02T03:49:15;19.30;99.90
4509;DHT22;2267;48.816;9.230;2023-07-02T03:51:41;19.30;99.90
4509;DHT22;2267;48.816;9.230;2023-07-02T03:54:08;19.30;99.90
4509;DHT22;2267;48.816;9.230;2023-07-02T03:56:35;19.30;99.90
4509;DHT22;2267;48.816;9.230;2023-07-02T03:59:02;19.30;99.90
4509;DHT22;2267;48.816;9.230;2023-07-02T04:01:28;19.20;99.90
4509;DHT22;2267;48.816;9.230;2023-07-02T04:03:56;19.20;99.90
4509;DHT22;2267;48.816;9.230;2023-07-02T04:06:23;19.20;99.90
4509;DHT22;2267;48.816;9.230;2023-07-02T04:08:50;19.20;99.90
4509;DHT22;2267;48.816;9.230;2023-07-02T04:11:17;19.20;99.90
4509;DHT22;2267;48.816;9.230;2023-07-02T04:13:44;19.20;99.90
4509;DHT22;2267;48.816;9.230;2023-07-02T04:16:11;19.20;99.90
4509;DHT22;2267;48.816;9.230;2023-07-02T04:18:38;19.20;99.90
4509;DHT22;2267;48.816;9.230;2023-07-02T04:21:04;19.20;99.90
4509;DHT22;2267;48.816;9.230;2023-07-02T04:23:31;19.20;99.90
4509;DHT22;2267;48.816;9.230;2023-07-02T04:25:58;19.10;99.90
4509;DHT22;2267;48.816;9.230;2023-07-02T04:28:45;19.10;99.90
4509;DHT22;2267;48.816;9.230;2023-07-02T04:31:12;19.20;99.90
4509;DHT22;2267;48.816;9.230;2023-07-02T04:33:39;19.20;99.90
4509;DHT22;2267;48.816;9.230;2023-07-02T04:36:06;19.20;99.90
4509;DHT22;2267;48.816;9.230;2023-07-02T04:38:33;19.20;99.90
4509;DHT22;2267;48.816;9.230;2023-07-02T04:41:00;19.20;99.90
4509;DHT22;2267;48.816;9.230;2023-07-02T04:43:32;19.20;99.90
4509;DHT22;2267;48.816;9.230;2023-07-02T04:46:00;19.20;99.90
4509;DHT22;2267;48.816;9.230;2023-07-02T04:48:27;19.20;99.90
4509;DHT22;2267;48.816;9.230;2023-07-02T04:50:54;19.20;99.90
4509;DHT22;2267;48.816;9.230;2023-07-02T04:53:21;19.10;99.90
4509;DHT22;2267;48.816;9.230;2023-07-02T04:55:48;19.20;99.90
4509;DHT22;2267;48.816;9.230;2023-07-02T04:58:15;19.20;99.90
4509;DHT22;2267;48.816;9.230;2023-07-02T05:00:42;19.20;99.90
4509;DHT22;2267;48.816;9.230;2023-07-02T05:03:09;19.20;99.90
4509;DHT22;2267;48.816;9.230;2023-07-02T05:05:36;19.20;99.90
4509;DHT22;2267;48.816;9.230;2023-07-02T05:08:03;19.30;99.90
4509;DHT22;2267;48.816;9.230;2023-07-02T05:10:31;19.30;99.90
4509;DHT22;2267;48.816;9.230;2023-07-02T05:12:58;19.30;99.90
4509;DHT22;2267;48.816;9.230;2023-07-02T05:15:25;19.30;99.90
4509;DHT22;2267;48.816;9.230;2023-07-02T05:17:53;19.30;99.90
4509;DHT22;2267;48.816;9.230;2023-07-02T05:20:20;19.40;99.90
4509;DHT22;2267;48.816;9.230;2023-07-02T05:22:47;19.40;99.90
4509;DHT22;2267;48.816;9.230;2023-07-02T05:25:14;19.40;99.90
4509;DHT22;2267;48.816;9.230;2023-07-02T05:27:40;19.40;99.90
4509;DHT22;2267;48.816;9.230;2023-07-02T05:30:08;19.40;99.90
4509;DHT22;2267;48.816;9.230;2023-07-02T05:32:34;19.40;99.90
4509;DHT22;2267;48.816;9.230;2023-07-02T05:35:02;19.40;99.90
4509;DHT22;2267;48.816;9.230;2023-07-02T05:37:28;19.40;99.90
4509;DHT22;2267;48.816;9.230;2023-07-02T05:39:55;19.50;99.90
4509;DHT22;2267;48.816;9.230;2023-07-02T05:42:22;19.50;99.90
4509;DHT22;2267;48.816;9.230;2023-07-02T05:44:50;19.50;99.90
4509;DHT22;2267;48.816;9.230;2023-07-02T05:47:16;19.50;99.90
4509;DHT22;2267;48.816;9.230;2023-07-02T05:49:43;19.50;99.90
4509;DHT22;2267;48.816;9.230;2023-07-02T05:52:10;19.50;99.90
4509;DHT22;2267;48.816;9.230;2023-07-02T05:54:40;19.60;99.90
4509;DHT22;2267;48.816;9.230;2023-07-02T05:57:07;19.60;99.90
4509;DHT22;2267;48.816;9.230;2023-07-02T05:59:34;19.60;99.90
4509;DHT22;2267;48.816;9.230;2023-07-02T06:02:01;19.60;99.90
4509;DHT22;2267;48.816;9.230;2023-07-02T06:04:28;19.60;99.90
4509;DHT22;2267;48.816;9.230;2023-07-02T06:06:55;19.60;99.90
4509;DHT22;2267;48.816;9.230;2023-07-02T06:09:22;19.70;99.90
4509;DHT22;2267;48.816;9.230;2023-07-02T06:11:48;19.70;99.90
4509;DHT22;2267;48.816;9.230;2023-07-02T06:14:15;19.70;99.90
4509;DHT22;2267;48.816;9.230;2023-07-02T06:16:42;19.80;99.90
4509;DHT22;2267;48.816;9.230;2023-07-02T06:19:09;19.80;99.90
4509;DHT22;2267;48.816;9.230;2023-07-02T06:21:36;19.80;99.90
4509;DHT22;2267;48.816;9.230;2023-07-02T06:24:03;19.80;99.90
4509;DHT22;2267;48.816;9.230;2023-07-02T06:26:30;19.80;99.90
4509;DHT22;2267;48.816;9.230;2023-07-02T06:28:59;19.80;99.70
4509;DHT22;2267;48.816;9.230;2023-07-02T06:31:26;19.80;99.30
4509;DHT22;2267;48.816;9.230;2023-07-02T06:33:53;19.80;99.50
4509;DHT22;2267;48.816;9.230;2023-07-02T06:36:20;19.90;99.30
4509;DHT22;2267;48.816;9.230;2023-07-02T06:38:47;19.90;99.00
4509;DHT22;2267;48.816;9.230;2023-07-02T06:41:14;19.90;98.70
4509;DHT22;2267;48.816;9.230;2023-07-02T06:43:42;19.90;98.90
4509;DHT22;2267;48.816;9.230;2023-07-02T06:46:11;19.80;98.50
4509;DHT22;2267;48.816;9.230;2023-07-02T06:48:38;19.90;98.60
4509;DHT22;2267;48.816;9.230;2023-07-02T06:51:05;19.90;98.20
4509;DHT22;2267;48.816;9.230;2023-07-02T06:53:33;20.00;98.20
4509;DHT22;2267;48.816;9.230;2023-07-02T06:56:00;20.00;98.60
4509;DHT22;2267;48.816;9.230;2023-07-02T06:58:27;20.00;97.80
4509;DHT22;2267;48.816;9.230;2023-07-02T07:00:54;20.00;97.90
4509;DHT22;2267;48.816;9.230;2023-07-02T07:03:21;20.00;97.50
4509;DHT22;2267;48.816;9.230;2023-07-02T07:05:48;20.10;97.80
4509;DHT22;2267;48.816;9.230;2023-07-02T07:08:15;20.10;97.70
4509;DHT22;2267;48.816;9.230;2023-07-02T07:10:42;20.10;97.70
4509;DHT22;2267;48.816;9.230;2023-07-02T07:13:09;20.10;97.40
4509;DHT22;2267;48.816;9.230;2023-07-02T07:15:37;20.20;97.50
4509;DHT22;2267;48.816;9.230;2023-07-02T07:18:04;20.20;97.20
4509;DHT22;2267;48.816;9.230;2023-07-02T07:20:31;20.20;97.20
4509;DHT22;2267;48.816;9.230;2023-07-02T07:22:58;20.20;97.10
4509;DHT22;2267;48.816;9.230;2023-07-02T07:25:25;20.30;97.20
4509;DHT22;2267;48.816;9.230;2023-07-02T07:27:52;20.30;97.00
4509;DHT22;2267;48.816;9.230;2023-07-02T07:30:20;20.40;97.00
4509;DHT22;2267;48.816;9.230;2023-07-02T07:32:50;20.40;96.60
4509;DHT22;2267;48.816;9.230;2023-07-02T07:35:18;20.40;96.80
4509;DHT22;2267;48.816;9.230;2023-07-02T07:37:45;20.30;95.80
4509;DHT22;2267;48.816;9.230;2023-07-02T07:40:12;20.40;95.70
4509;DHT22;2267;48.816;9.230;2023-07-02T07:42:41;20.40;95.30
4509;DHT22;2267;48.816;9.230;2023-07-02T07:45:10;20.40;97.70
4509;DHT22;2267;48.816;9.230;2023-07-02T07:47:38;20.70;99.90
4509;DHT22;2267;48.816;9.230;2023-07-02T07:50:06;20.90;99.90
4509;DHT22;2267;48.816;9.230;2023-07-02T07:52:40;21.00;99.20
4509;DHT22;2267;48.816;9.230;2023-07-02T07:55:07;21.20;99.20
4509;DHT22;2267;48.816;9.230;2023-07-02T07:57:35;21.30;98.70
4509;DHT22;2267;48.816;9.230;2023-07-02T08:00:03;21.30;97.80
4509;DHT22;2267;48.816;9.230;2023-07-02T08:02:32;21.40;96.20
4509;DHT22;2267;48.816;9.230;2023-07-02T08:04:59;21.40;96.90
4509;DHT22;2267;48.816;9.230;2023-07-02T08:07:25;21.60;97.50
4509;DHT22;2267;48.816;9.230;2023-07-02T08:09:52;21.60;95.60
4509;DHT22;2267;48.816;9.230;2023-07-02T08:12:19;21.70;95.00
4509;DHT22;2267;48.816;9.230;2023-07-02T08:14:46;21.70;94.70
4509;DHT22;2267;48.816;9.230;2023-07-02T08:17:14;21.70;94.30
4509;DHT22;2267;48.816;9.230;2023-07-02T08:19:40;21.70;93.90
4509;DHT22;2267;48.816;9.230;2023-07-02T08:22:07;21.70;94.50
4509;DHT22;2267;48.816;9.230;2023-07-02T08:24:34;21.80;93.50
4509;DHT22;2267;48.816;9.230;2023-07-02T08:27:01;21.80;93.70
4509;DHT22;2267;48.816;9.230;2023-07-02T08:29:30;21.80;93.70
4509;DHT22;2267;48.816;9.230;2023-07-02T08:31:57;21.90;94.10
4509;DHT22;2267;48.816;9.230;2023-07-02T08:34:24;22.00;93.60
4509;DHT22;2267;48.816;9.230;2023-07-02T08:36:51;22.00;91.90
4509;DHT22;2267;48.816;9.230;2023-07-02T08:39:18;22.00;92.60
4509;DHT22;2267;48.816;9.230;2023-07-02T08:41:46;22.00;91.80
4509;DHT22;2267;48.816;9.230;2023-07-02T08:44:14;22.00;91.40
4509;DHT22;2267;48.816;9.230;2023-07-02T08:46:42;22.00;91.20
4509;DHT22;2267;48.816;9.230;2023-07-02T08:49:09;22.00;91.20
4509;DHT22;2267;48.816;9.230;2023-07-02T08:51:36;22.00;91.60
4509;DHT22;2267;48.816;9.230;2023-07-02T08:54:03;22.00;91.00
4509;DHT22;2267;48.816;9.230;2023-07-02T08:56:30;22.10;90.40
4509;DHT22;2267;48.816;9.230;2023-07-02T08:58:57;22.10;90.50
4509;DHT22;2267;48.816;9.230;2023-07-02T09:01:24;22.20;88.90
4509;DHT22;2267;48.816;9.230;2023-07-02T09:03:51;22.20;89.10
4509;DHT22;2267;48.816;9.230;2023-07-02T09:06:18;22.20;89.60
4509;DHT22;2267;48.816;9.230;2023-07-02T09:08:45;22.30;89.10
4509;DHT22;2267;48.816;9.230;2023-07-02T09:11:14;22.30;88.40
4509;DHT22;2267;48.816;9.230;2023-07-02T09:13:46;22.40;88.90
4509;DHT22;2267;48.816;9.230;2023-07-02T09:16:30;22.40;89.60
4509;DHT22;2267;48.816;9.230;2023-07-02T09:19:11;22.50;88.10
4509;DHT22;2267;48.816;9.230;2023-07-02T09:21:45;22.50;86.20
4509;DHT22;2267;48.816;9.230;2023-07-02T09:24:17;22.60;86.50
4509;DHT22;2267;48.816;9.230;2023-07-02T09:26:52;22.60;87.50
4509;DHT22;2267;48.816;9.230;2023-07-02T09:29:27;22.60;87.10
4509;DHT22;2267;48.816;9.230;2023-07-02T09:32:00;22.70;85.40
4509;DHT22;2267;48.816;9.230;2023-07-02T09:34:31;22.70;86.10
4509;DHT22;2267;48.816;9.230;2023-07-02T09:36:59;22.70;86.40
4509;DHT22;2267;48.816;9.230;2023-07-02T09:39:34;22.80;87.20
4509;DHT22;2267;48.816;9.230;2023-07-02T09:42:05;22.80;86.40
4509;DHT22;2267;48.816;9.230;2023-07-02T09:44:34;22.90;87.30
4509;DHT22;2267;48.816;9.230;2023-07-02T09:47:06;23.00;86.00
4509;DHT22;2267;48.816;9.230;2023-07-02T09:49:35;23.00;85.40
4509;DHT22;2267;48.816;9.230;2023-07-02T09:52:09;23.10;85.70
4509;DHT22;2267;48.816;9.230;2023-07-02T09:54:37;23.10;84.60
4509;DHT22;2267;48.816;9.230;2023-07-02T09:57:05;23.20;85.40
4509;DHT22;2267;48.816;9.230;2023-07-02T09:59:35;23.30;85.70
4509;DHT22;2267;48.816;9.230;2023-07-02T10:02:02;23.30;84.70
4509;DHT22;2267;48.816;9.230;2023-07-02T10:04:43;23.30;85.20
4509;DHT22;2267;48.816;9.230;2023-07-02T10:07:11;23.30;83.70
4509;DHT22;2267;48.816;9.230;2023-07-02T10:09:44;23.40;83.80
4509;DHT22;2267;48.816;9.230;2023-07-02T10:12:27;23.50;83.80
4509;DHT22;2267;48.816;9.230;2023-07-02T10:14:56;23.40;84.10
4509;DHT22;2267;48.816;9.230;2023-07-02T10:17:54;23.40;82.60
4509;DHT22;2267;48.816;9.230;2023-07-02T10:23:00;23.50;82.50
4509;DHT22;2267;48.816;9.230;2023-07-02T10:25:32;23.40;82.50
4509;DHT22;2267;48.816;9.230;2023-07-02T10:28:01;23.40;82.80
4509;DHT22;2267;48.816;9.230;2023-07-02T10:30:32;23.50;82.80
4509;DHT22;2267;48.816;9.230;2023-07-02T10:33:12;23.40;82.70
4509;DHT22;2267;48.816;9.230;2023-07-02T10:35:40;23.50;81.70
4509;DHT22;2267;48.816;9.230;2023-07-02T10:38:29;23.50;81.50
4509;DHT22;2267;48.816;9.230;2023-07-02T10:40:57;23.60;82.00
4509;DHT22;2267;48.816;9.230;2023-07-02T10:43:33;23.60;82.90
4509;DHT22;2267;48.816;9.230;2023-07-02T10:46:01;23.70;81.60
4509;DHT22;2267;48.816;9.230;2023-07-02T10:48:30;23.80;81.10
4509;DHT22;2267;48.816;9.230;2023-07-02T10:50:57;23.80;80.50
4509;DHT22;2267;48.816;9.230;2023-07-02T10:53:24;23.80;80.50
4509;DHT22;2267;48.816;9.230;2023-07-02T10:55:55;23.80;79.70
4509;DHT22;2267;48.816;9.230;2023-07-02T10:58:24;23.80;79.60
4509;DHT22;2267;48.816;9.230;2023-07-02T11:00:51;23.90;80.20
4509;DHT22;2267;48.816;9.230;2023-07-02T11:03:22;23.90;79.20
4509;DHT22;2267;48.816;9.230;2023-07-02T11:05:50;23.90;78.40
4509;DHT22;2267;48.816;9.230;2023-07-02T11:08:18;24.00;78.30
4509;DHT22;2267;48.816;9.230;2023-07-02T11:10:48;24.10;76.30
4509;DHT22;2267;48.816;9.230;2023-07-02T11:13:21;24.20;75.50
4509;DHT22;2267;48.816;9.230;2023-07-02T11:15:48;23.60;75.70
4509;DHT22;2267;48.816;9.230;2023-07-02T11:18:17;24.10;77.70
4509;DHT22;2267;48.816;9.230;2023-07-02T11:20:45;24.10;78.40
4509;DHT22;2267;48.816;9.230;2023-07-02T11:23:23;24.00;77.30
4509;DHT22;2267;48.816;9.230;2023-07-02T11:26:01;24.10;78.20
4509;DHT22;2267;48.816;9.230;2023-07-02T11:28:30;24.10;78.20
4509;DHT22;2267;48.816;9.230;2023-07-02T11:30:58;24.10;76.80
4509;DHT22;2267;48.816;9.230;2023-07-02T11:33:39;24.20;76.60
4509;DHT22;2267;48.816;9.230;2023-07-02T11:36:07;24.20;76.60
4509;DHT22;2267;48.816;9.230;2023-07-02T11:38:36;24.20;75.90
4509;DHT22;2267;48.816;9.230;2023-07-02T11:41:04;24.20;76.60
4509;DHT22;2267;48.816;9.230;2023-07-02T11:43:31;24.20;76.80
4509;DHT22;2267;48.816;9.230;2023-07-02T11:45:59;24.30;76.60
4509;DHT22;2267;48.816;9.230;2023-07-02T11:48:26;24.40;76.70
4509;DHT22;2267;48.816;9.230;2023-07-02T11:50:53;24.40;73.50
4509;DHT22;2267;48.816;9.230;2023-07-02T11:53:19;24.50;72.40
4509;DHT22;2267;48.816;9.230;2023-07-02T11:55:46;24.60;72.80
4509;DHT22;2267;48.816;9.230;2023-07-02T11:58:14;24.60;71.20
4509;DHT22;2267;48.816;9.230;2023-07-02T12:00:40;24.70;71.30
4509;DHT22;2267;48.816;9.230;2023-07-02T12:03:07;24.70;70.60
4509;DHT22;2267;48.816;9.230;2023-07-02T12:05:34;24.70;70.10
4509;DHT22;2267;48.816;9.230;2023-07-02T12:08:02;24.60;69.90
4509;DHT22;2267;48.816;9.230;2023-07-02T12:10:29;24.60;70.60
4509;DHT22;2267;48.816;9.230;2023-07-02T12:12:56;24.60;71.50
4509;DHT22;2267;48.816;9.230;2023-07-02T12:15:23;24.60;71.10
4509;DHT22;2267;48.816;9.230;2023-07-02T12:17:50;24.80;69.70
4509;DHT22;2267;48.816;9.230;2023-07-02T12:20:16;24.70;68.30
4509;DHT22;2267;48.816;9.230;2023-07-02T12:22:43;24.90;69.60
4509;DHT22;2267;48.816;9.230;2023-07-02T12:25:11;25.00;70.10
4509;DHT22;2267;48.816;9.230;2023-07-02T12:27:38;25.20;69.40
4509;DHT22;2267;48.816;9.230;2023-07-02T12:30:05;25.30;67.90
4509;DHT22;2267;48.816;9.230;2023-07-02T12:32:32;25.40;67.30
4509;DHT22;2267;48.816;9.230;2023-07-02T12:34:59;25.50;66.50
4509;DHT22;2267;48.816;9.230;2023-07-02T12:37:26;25.70;66.60
4509;DHT22;2267;48.816;9.230;2023-07-02T12:39:52;25.80;65.90
4509;DHT22;2267;48.816;9.230;2023-07-02T12:42:19;25.90;66.20
4509;DHT22;2267;48.816;9.230;2023-07-02T12:44:46;26.20;64.70
4509;DHT22;2267;48.816;9.230;2023-07-02T12:47:13;26.30;64.70
4509;DHT22;2267;48.816;9.230;2023-07-02T12:49:40;26.20;62.30
4509;DHT22;2267;48.816;9.230;2023-07-02T12:52:07;26.30;63.70
4509;DHT22;2267;48.816;9.230;2023-07-02T12:54:34;26.50;63.00
4509;DHT22;2267;48.816;9.230;2023-07-02T12:57:00;26.50;61.40
4509;DHT22;2267;48.816;9.230;2023-07-02T12:59:27;26.60;60.60
4509;DHT22;2267;48.816;9.230;2023-07-02T13:01:54;26.60;60.20
4509;DHT22;2267;48.816;9.230;2023-07-02T13:04:21;26.70;59.70
4509;DHT22;2267;48.816;9.230;2023-07-02T13:06:48;26.80;59.40
4509;DHT22;2267;48.816;9.230;2023-07-02T13:09:15;26.90;58.70
4509;DHT22;2267;48.816;9.230;2023-07-02T13:11:42;27.00;58.00
4509;DHT22;2267;48.816;9.230;2023-07-02T13:14:08;27.00;58.20
4509;DHT22;2267;48.816;9.230;2023-07-02T13:16:35;27.00;58.50
4509;DHT22;2267;48.816;9.230;2023-07-02T13:19:02;27.10;57.80
4509;DHT22;2267;48.816;9.230;2023-07-02T13:21:29;27.30;58.30
4509;DHT22;2267;48.816;9.230;2023-07-02T13:23:56;27.40;57.80
4509;DHT22;2267;48.816;9.230;2023-07-02T13:26:23;27.60;58.00
4509;DHT22;2267;48.816;9.230;2023-07-02T13:28:50;27.80;57.40
4509;DHT22;2267;48.816;9.230;2023-07-02T13:31:17;27.70;56.10
4509;DHT22;2267;48.816;9.230;2023-07-02T13:33:43;27.70;55.70
4509;DHT22;2267;48.816;9.230;2023-07-02T13:36:11;27.90;55.90
4509;DHT22;2267;48.816;9.230;2023-07-02T13:38:38;28.00;56.00
4509;DHT22;2267;48.816;9.230;2023-07-02T13:41:05;28.10;55.90
4509;DHT22;2267;48.816;9.230;2023-07-02T13:43:32;28.10;55.50
4509;DHT22;2267;48.816;9.230;2023-07-02T13:45:59;28.30;55.90
4509;DHT22;2267;48.816;9.230;2023-07-02T13:48:26;28.40;55.60
4509;DHT22;2267;48.816;9.230;2023-07-02T13:50:54;28.40;55.10
4509;DHT22;2267;48.816;9.230;2023-07-02T13:53:21;28.50;54.50
4509;DHT22;2267;48.816;9.230;2023-07-02T13:55:48;28.50;55.00
4509;DHT22;2267;48.816;9.230;2023-07-02T13:58:15;28.50;54.00
4509;DHT22;2267;48.816;9.230;2023-07-02T14:00:55;28.60;54.40
4509;DHT22;2267;48.816;9.230;2023-07-02T14:03:22;28.70;54.20
4509;DHT22;2267;48.816;9.230;2023-07-02T14:05:49;28.80;54.50
4509;DHT22;2267;48.816;9.230;2023-07-02T14:08:17;28.90;54.20
4509;DHT22;2267;48.816;9.230;2023-07-02T14:10:44;28.80;53.30
4509;DHT22;2267;48.816;9.230;2023-07-02T14:13:11;28.90;53.60
4509;DHT22;2267;48.816;9.230;2023-07-02T14:15:37;28.90;53.40
4509;DHT22;2267;48.816;9.230;2023-07-02T14:18:04;28.90;53.70
4509;DHT22;2267;48.816;9.230;2023-07-02T14:20:32;28.90;53.30
4509;DHT22;2267;48.816;9.230;2023-07-02T14:22:59;29.00;53.70
4509;DHT22;2267;48.816;9.230;2023-07-02T14:25:26;29.00;52.90
4509;DHT22;2267;48.816;9.230;2023-07-02T14:28:08;29.00;52.70
4509;DHT22;2267;48.816;9.230;2023-07-02T14:30:35;29.10;52.60
4509;DHT22;2267;48.816;9.230;2023-07-02T14:33:02;29.20;52.80
4509;DHT22;2267;48.816;9.230;2023-07-02T14:35:29;29.20;52.50
4509;DHT22;2267;48.816;9.230;2023-07-02T14:37:58;29.30;52.00
4509;DHT22;2267;48.816;9.230;2023-07-02T14:40:25;29.30;51.80
4509;DHT22;2267;48.816;9.230;2023-07-02T14:42:52;29.40;52.40
4509;DHT22;2267;48.816;9.230;2023-07-02T14:45:19;29.30;52.10
4509;DHT22;2267;48.816;9.230;2023-07-02T14:47:45;29.40;52.10
4509;DHT22;2267;48.816;9.230;2023-07-02T14:50:12;29.30;51.00
4509;DHT22;2267;48.816;9.230;2023-07-02T14:52:39;29.20;50.80
4509;DHT22;2267;48.816;9.230;2023-07-02T14:55:06;29.20;51.70
4509;DHT22;2267;48.816;9.230;2023-07-02T14:57:33;29.30;51.40
4509;DHT22;2267;48.816;9.230;2023-07-02T15:00:00;29.30;51.40
4509;DHT22;2267;48.816;9.230;2023-07-02T15:02:27;29.40;51.30
4509;DHT22;2267;48.816;9.230;2023-07-02T15:04:54;29.50;51.40
4509;DHT22;2267;48.816;9.230;2023-07-02T15:07:21;29.60;51.50
4509;DHT22;2267;48.816;9.230;2023-07-02T15:09:48;29.70;50.40
4509;DHT22;2267;48.816;9.230;2023-07-02T15:12:15;29.70;50.50
4509;DHT22;2267;48.816;9.230;2023-07-02T15:14:42;29.60;50.70
4509;DHT22;2267;48.816;9.230;2023-07-02T15:17:09;29.50;50.70
4509;DHT22;2267;48.816;9.230;2023-07-02T15:19:36;29.50;50.50
4509;DHT22;2267;48.816;9.230;2023-07-02T15:22:03;29.50;50.90
4509;DHT22;2267;48.816;9.230;2023-07-02T15:24:30;29.50;50.70
4509;DHT22;2267;48.816;9.230;2023-07-02T15:26:59;29.50;50.80
4509;DHT22;2267;48.816;9.230;2023-07-02T15:29:26;29.60;50.90
4509;DHT22;2267;48.816;9.230;2023-07-02T15:31:53;29.60;51.00
4509;DHT22;2267;48.816;9.230;2023-07-02T15:34:19;29.60;50.60
4509;DHT22;2267;48.816;9.230;2023-07-02T15:36:46;29.70;51.00
4509;DHT22;2267;48.816;9.230;2023-07-02T15:39:13;29.60;51.30
4509;DHT22;2267;48.816;9.230;2023-07-02T15:41:40;29.50;51.00
4509;DHT22;2267;48.816;9.230;2023-07-02T15:44:09;29.60;51.40
4509;DHT22;2267;48.816;9.230;2023-07-02T15:46:36;29.60;51.00
4509;DHT22;2267;48.816;9.230;2023-07-02T15:49:03;29.50;50.80
4509;DHT22;2267;48.816;9.230;2023-07-02T15:51:30;29.40;50.80
4509;DHT22;2267;48.816;9.230;2023-07-02T15:54:03;29.20;50.90
4509;DHT22;2267;48.816;9.230;2023-07-02T15:56:33;29.00;50.70
4509;DHT22;2267;48.816;9.230;2023-07-02T15:59:01;29.00;51.20
4509;DHT22;2267;48.816;9.230;2023-07-02T16:01:28;29.00;51.10
4509;DHT22;2267;48.816;9.230;2023-07-02T16:03:55;29.00;51.10
4509;DHT22;2267;48.816;9.230;2023-07-02T16:06:22;29.00;51.00
4509;DHT22;2267;48.816;9.230;2023-07-02T16:08:51;29.00;50.90